createdAt,value
2017-07-28T00:00:21.690Z,97251.20
2017-07-28T00:02:49.145Z,97263.34
2017-07-28T00:05:16.628Z,97267.59
2017-07-28T00:07:44.040Z,97263.55
2017-07-28T00:10:11.484Z,97268.20
2017-07-28T00:12:38.901Z,97275.35
2017-07-28T00:15:06.333Z,97271.69
2017-07-28T00:17:33.820Z,97270.45
2017-07-28T00:20:01.267Z,97271.13
2017-07-28T00:22:28.699Z,97279.13
2017-07-28T00:24:56.141Z,97267.58
2017-07-28T00:27:23.579Z,97271.31
2017-07-28T00:29:50.988Z,97271.94
2017-07-28T00:32:18.427Z,97273.06
2017-07-28T00:34:45.845Z,97270.80
2017-07-28T00:37:13.279Z,97274.77
2017-07-28T00:39:40.698Z,97266.22
2017-07-28T00:42:08.114Z,97270.34
2017-07-28T00:44:35.625Z,97272.50
2017-07-28T00:47:03.018Z,97265.94
2017-07-28T00:49:30.459Z,97268.91
2017-07-28T00:51:58.024Z,97273.89
2017-07-28T00:54:25.471Z,97275.82
2017-07-28T00:56:52.909Z,97275.03
2017-07-28T00:59:20.314Z,97270.56
2017-07-28T01:01:47.750Z,97268.72
2017-07-28T01:04:15.181Z,97271.14
2017-07-28T01:06:42.594Z,97271.72
2017-07-28T01:09:10.062Z,97275.99
2017-07-28T01:11:37.498Z,97278.99
2017-07-28T01:14:05.599Z,97277.94
2017-07-28T01:16:33.041Z,97283.58
2017-07-28T01:19:00.525Z,97285.22
2017-07-28T01:21:28.067Z,97285.02
2017-07-28T01:23:55.638Z,97287.39
2017-07-28T01:26:23.129Z,97280.03
2017-07-28T01:28:50.568Z,97272.41
2017-07-28T01:31:17.972Z,97277.14
2017-07-28T01:33:45.472Z,97278.16
2017-07-28T01:36:12.879Z,97280.95
2017-07-28T01:38:40.380Z,97292.33
2017-07-28T01:41:07.892Z,97286.78
2017-07-28T01:43:35.313Z,97295.48
2017-07-28T01:46:02.739Z,97293.80
2017-07-28T01:48:30.228Z,97296.16
2017-07-28T01:50:57.700Z,97299.36
2017-07-28T01:53:25.228Z,97302.33
2017-07-28T01:55:52.687Z,97306.25
2017-07-28T01:58:20.137Z,97305.35
2017-07-28T02:00:47.625Z,97305.14
2017-07-28T02:03:15.027Z,97306.31
2017-07-28T02:05:42.471Z,97304.84
2017-07-28T02:08:09.908Z,97308.20
2017-07-28T02:10:37.367Z,97307.48
2017-07-28T02:13:04.775Z,97300.12
2017-07-28T02:15:32.179Z,97307.03
2017-07-28T02:17:59.609Z,97316.08
2017-07-28T02:20:27.041Z,97322.41
2017-07-28T02:22:54.552Z,97323.27
2017-07-28T02:25:21.951Z,97329.14
2017-07-28T02:27:49.355Z,97321.80
2017-07-28T02:30:16.839Z,97330.05
2017-07-28T02:32:44.291Z,97337.25
2017-07-28T02:35:11.748Z,97346.80
2017-07-28T02:37:39.183Z,97349.80
2017-07-28T02:40:06.626Z,97341.11
2017-07-28T02:42:34.023Z,97339.63
2017-07-28T02:45:01.424Z,97343.59
2017-07-28T02:47:28.868Z,97348.34
2017-07-28T02:49:56.300Z,97352.69
2017-07-28T02:52:23.723Z,97347.98
2017-07-28T02:54:51.175Z,97357.89
2017-07-28T02:57:18.599Z,97339.22
2017-07-28T02:59:46.053Z,97353.42
2017-07-28T03:02:13.456Z,97355.73
2017-07-28T03:04:40.930Z,97353.11
2017-07-28T03:07:08.363Z,97351.78
2017-07-28T03:09:36.330Z,97350.25
2017-07-28T03:12:03.837Z,97355.77
2017-07-28T03:14:31.247Z,97358.07
2017-07-28T03:16:58.713Z,97357.52
2017-07-28T03:19:26.111Z,97360.82
2017-07-28T03:21:53.515Z,97364.69
2017-07-28T03:24:20.948Z,97363.97
2017-07-28T03:26:48.348Z,97369.65
2017-07-28T03:29:15.914Z,97367.09
2017-07-28T03:31:43.330Z,97369.55
2017-07-28T03:34:10.752Z,97372.13
2017-07-28T03:36:38.251Z,97378.85
2017-07-28T03:39:05.690Z,97373.33
2017-07-28T03:41:33.164Z,97381.13
2017-07-28T03:44:00.601Z,97384.41
2017-07-28T03:46:28.100Z,97391.55
2017-07-28T03:48:55.630Z,97386.09
2017-07-28T03:51:23.053Z,97389.34
2017-07-28T03:53:50.574Z,97387.65
2017-07-28T03:56:17.976Z,97401.44
2017-07-28T03:58:45.423Z,97403.95
2017-07-28T04:01:12.838Z,97406.37
2017-07-28T04:03:40.245Z,97407.63
2017-07-28T04:06:07.837Z,97416.16
2017-07-28T04:08:35.255Z,97421.78
2017-07-28T04:11:02.697Z,97437.14
2017-07-28T04:13:30.127Z,97443.78
2017-07-28T04:15:57.539Z,97444.52
2017-07-28T04:18:25.000Z,97454.81
2017-07-28T04:20:52.470Z,97448.25
2017-07-28T04:23:20.050Z,97446.99
2017-07-28T04:25:47.575Z,97439.94
2017-07-28T04:28:15.036Z,97437.12
2017-07-28T04:30:42.450Z,97433.45
2017-07-28T04:33:09.873Z,97428.39
2017-07-28T04:35:37.312Z,97429.30
2017-07-28T04:38:04.721Z,97438.84
2017-07-28T04:40:32.168Z,97439.98
2017-07-28T04:42:59.635Z,97436.66
2017-07-28T04:45:27.092Z,97439.37
2017-07-28T04:47:54.506Z,97444.78
2017-07-28T04:50:21.936Z,97451.46
2017-07-28T04:52:49.387Z,97450.47
2017-07-28T04:55:16.803Z,97457.42
2017-07-28T04:57:44.323Z,97460.15
2017-07-28T05:00:11.876Z,97451.32
2017-07-28T05:02:39.384Z,97453.91
2017-07-28T05:05:06.792Z,97456.86
2017-07-28T05:07:34.244Z,97456.95
2017-07-28T05:10:01.684Z,97461.30
2017-07-28T05:12:29.134Z,97471.33
2017-07-28T05:14:56.564Z,97476.28
2017-07-28T05:17:24.321Z,97482.53
2017-07-28T05:19:51.751Z,97489.15
2017-07-28T05:22:19.212Z,97481.23
2017-07-28T05:24:46.671Z,97481.16
2017-07-28T05:27:14.116Z,97482.48
2017-07-28T05:29:41.531Z,97485.19
2017-07-28T05:32:08.939Z,97484.29
2017-07-28T05:34:36.371Z,97484.80
2017-07-28T05:37:03.835Z,97495.75
2017-07-28T05:39:31.335Z,97493.77
2017-07-28T05:41:58.742Z,97505.91
2017-07-28T05:44:26.176Z,97507.40
2017-07-28T05:46:53.588Z,97504.39
2017-07-28T05:49:21.003Z,97500.27
2017-07-28T05:51:48.436Z,97504.25
2017-07-28T05:54:15.893Z,97501.65
2017-07-28T05:56:43.375Z,97508.73
2017-07-28T05:59:10.792Z,97496.80
2017-07-28T06:01:38.207Z,97494.69
2017-07-28T06:04:05.660Z,97506.07
2017-07-28T06:06:33.061Z,97503.86
2017-07-28T06:09:00.508Z,97502.39
2017-07-28T06:11:28.004Z,97500.59
2017-07-28T06:13:55.504Z,97502.63
2017-07-28T06:16:22.934Z,97513.73
2017-07-28T06:18:50.340Z,97519.80
2017-07-28T06:21:17.777Z,97521.53
2017-07-28T06:23:45.180Z,97525.73
2017-07-28T06:26:12.639Z,97527.05
2017-07-28T06:28:40.921Z,97533.50
2017-07-28T06:31:08.367Z,97534.00
2017-07-28T06:33:35.798Z,97538.13
2017-07-28T06:36:03.207Z,97543.48
2017-07-28T06:38:30.607Z,97538.14
2017-07-28T06:40:58.054Z,97547.80
2017-07-28T06:43:25.518Z,97545.05
2017-07-28T06:45:52.982Z,97542.96
2017-07-28T06:48:20.399Z,97542.55
2017-07-28T06:50:47.813Z,97546.52
2017-07-28T06:53:15.238Z,97543.45
2017-07-28T06:55:42.665Z,97552.80
2017-07-28T06:58:10.128Z,97551.73
2017-07-28T07:00:37.610Z,97554.91
2017-07-28T07:03:05.032Z,97560.05
2017-07-28T07:05:32.479Z,97561.80
2017-07-28T07:07:59.894Z,97563.23
2017-07-28T07:10:27.309Z,97563.88
2017-07-28T07:12:55.608Z,97565.86
2017-07-28T07:15:23.029Z,97568.22
2017-07-28T07:17:50.482Z,97582.84
2017-07-28T07:20:17.916Z,97585.13
2017-07-28T07:22:45.353Z,97584.70
2017-07-28T07:25:12.763Z,97591.87
2017-07-28T07:27:40.216Z,97583.38
2017-07-28T07:30:07.625Z,97587.56
2017-07-28T07:32:35.083Z,97582.22
2017-07-28T07:35:02.514Z,97585.80
2017-07-28T07:37:29.920Z,97584.90
2017-07-28T07:39:57.363Z,97578.47
2017-07-28T07:42:24.771Z,97583.77
2017-07-28T07:44:52.206Z,97583.92
2017-07-28T07:47:19.663Z,97577.52
2017-07-28T07:49:47.085Z,97580.62
2017-07-28T07:52:14.559Z,97577.84
2017-07-28T07:54:41.986Z,97583.16
2017-07-28T07:57:09.439Z,97593.27
2017-07-28T07:59:37.107Z,97587.69
2017-07-28T08:02:04.514Z,97583.84
2017-07-28T08:04:31.970Z,97594.77
2017-07-28T08:06:59.412Z,97606.73
2017-07-28T08:09:26.923Z,97599.81
2017-07-28T08:11:54.341Z,97593.95
2017-07-28T08:14:22.405Z,97594.77
2017-07-28T08:16:49.908Z,97593.80
2017-07-28T08:19:17.333Z,97597.48
2017-07-28T08:21:44.808Z,97596.47
2017-07-28T08:24:12.392Z,97599.84
2017-07-28T08:26:39.803Z,97610.09
2017-07-28T08:29:07.235Z,97608.06
2017-07-28T08:31:34.776Z,97604.32
2017-07-28T08:34:02.230Z,97611.30
2017-07-28T08:36:29.649Z,97611.73
2017-07-28T08:38:57.087Z,97602.95
2017-07-28T08:46:44.371Z,97606.41
2017-07-28T08:49:11.879Z,97608.24
2017-07-28T08:51:39.336Z,97610.94
2017-07-28T08:54:06.774Z,97607.80
2017-07-28T08:56:34.215Z,97606.47
2017-07-28T08:59:01.700Z,97611.23
2017-07-28T09:01:29.099Z,97615.58
2017-07-28T09:03:56.984Z,97609.20
2017-07-28T09:06:24.426Z,97608.30
2017-07-28T09:08:51.877Z,97617.53
2017-07-28T09:11:19.408Z,97622.13
2017-07-28T09:13:46.836Z,97626.12
2017-07-28T09:16:14.304Z,97627.19
2017-07-28T09:18:41.747Z,97626.25
2017-07-28T09:21:09.220Z,97620.34
2017-07-28T09:23:36.670Z,97627.27
2017-07-28T09:26:04.153Z,97640.23
2017-07-28T09:28:31.609Z,97644.42
2017-07-28T09:30:59.085Z,97647.61
2017-07-28T09:33:26.499Z,97642.16
2017-07-28T09:35:53.960Z,97639.84
2017-07-28T09:38:21.426Z,97641.69
2017-07-28T09:40:48.992Z,97641.05
2017-07-28T09:43:16.434Z,97644.02
2017-07-28T09:45:43.870Z,97655.44
2017-07-28T09:48:11.851Z,97660.60
2017-07-28T09:50:40.150Z,97655.81
2017-07-28T09:53:07.610Z,97652.16
2017-07-28T09:55:35.043Z,97646.41
2017-07-28T09:58:02.582Z,97649.41
2017-07-28T10:00:30.003Z,97653.11
2017-07-28T10:02:57.481Z,97650.88
2017-07-28T10:05:24.924Z,97658.43
2017-07-28T10:07:52.504Z,97665.05
2017-07-28T10:10:19.900Z,97663.52
2017-07-28T10:12:47.312Z,97664.62
2017-07-28T10:15:14.816Z,97664.84
2017-07-28T10:17:42.226Z,97664.09
2017-07-28T10:20:09.808Z,97663.84
2017-07-28T10:22:37.299Z,97664.41
2017-07-28T10:25:04.773Z,97664.41
2017-07-28T10:27:32.236Z,97665.86
2017-07-28T10:29:59.732Z,97657.88
2017-07-28T10:32:27.217Z,97657.69
2017-07-28T10:34:54.748Z,97655.31
2017-07-28T10:37:22.152Z,97654.92
2017-07-28T10:39:49.594Z,97650.23
2017-07-28T10:42:17.083Z,97655.94
2017-07-28T10:44:44.500Z,97656.53
2017-07-28T10:47:11.948Z,97662.97
2017-07-28T10:49:39.397Z,97650.72
2017-07-28T10:52:06.898Z,97653.39
2017-07-28T10:54:34.311Z,97652.23
2017-07-28T10:57:01.841Z,97659.52
2017-07-28T10:59:29.648Z,97661.36
2017-07-28T11:01:57.108Z,97656.13
2017-07-28T11:04:24.619Z,97656.35
2017-07-28T11:06:52.066Z,97655.40
2017-07-28T11:09:19.495Z,97659.14
2017-07-28T11:11:46.947Z,97658.00
2017-07-28T11:14:14.349Z,97662.31
2017-07-28T11:16:41.837Z,97658.78
2017-07-28T11:19:09.304Z,97653.75
2017-07-28T11:21:36.860Z,97655.89
2017-07-28T11:24:04.366Z,97664.90
2017-07-28T11:26:31.804Z,97661.98
2017-07-28T11:28:59.331Z,97669.40
2017-07-28T11:31:26.792Z,97668.00
2017-07-28T11:33:54.230Z,97660.86
2017-07-28T11:36:21.696Z,97663.44
2017-07-28T11:38:49.185Z,97660.96
2017-07-28T11:41:16.641Z,97655.05
2017-07-28T11:43:44.120Z,97662.26
2017-07-28T11:46:11.532Z,97665.48
2017-07-28T11:48:39.495Z,97665.45
2017-07-28T11:51:06.993Z,97667.70
2017-07-28T11:53:34.466Z,97666.66
2017-07-28T11:56:01.875Z,97661.09
2017-07-28T11:58:29.379Z,97663.66
2017-07-28T12:00:56.845Z,97665.97
2017-07-28T12:03:24.272Z,97672.60
2017-07-28T12:05:51.833Z,97671.75
2017-07-28T12:08:19.271Z,97671.56
2017-07-28T12:10:46.690Z,97672.23
2017-07-28T12:13:14.132Z,97667.23
2017-07-28T12:15:41.588Z,97662.28
2017-07-28T12:18:09.063Z,97665.98
2017-07-28T12:20:36.481Z,97662.20
2017-07-28T12:23:03.902Z,97664.54
2017-07-28T12:25:31.621Z,97668.81
2017-07-28T12:27:59.068Z,97672.70
2017-07-28T12:30:27.122Z,97668.53
2017-07-28T12:32:54.549Z,97664.91
2017-07-28T12:35:22.036Z,97666.78
2017-07-28T12:37:49.486Z,97665.38
2017-07-28T12:40:16.907Z,97664.78
2017-07-28T12:42:44.428Z,97675.14
2017-07-28T12:45:11.908Z,97669.20
2017-07-28T12:47:39.654Z,97665.38
2017-07-28T12:50:07.147Z,97664.20
2017-07-28T12:52:34.813Z,97650.37
2017-07-28T12:55:02.217Z,97655.38
2017-07-28T12:57:29.683Z,97660.36
2017-07-28T12:59:57.232Z,97655.92
2017-07-28T13:02:24.728Z,97657.38
2017-07-28T13:04:52.153Z,97651.27
2017-07-28T13:07:19.643Z,97651.52
2017-07-28T13:09:47.061Z,97654.09
2017-07-28T13:12:14.463Z,97640.60
2017-07-28T13:14:41.987Z,97643.38
2017-07-28T13:17:09.417Z,97650.94
2017-07-28T13:19:36.860Z,97637.64
2017-07-28T13:22:04.311Z,97648.83
2017-07-28T13:24:31.735Z,97648.00
2017-07-28T13:26:59.166Z,97640.37
2017-07-28T13:29:26.643Z,97634.62
2017-07-28T13:31:54.144Z,97638.11
2017-07-28T13:34:21.568Z,97638.74
2017-07-28T13:36:49.022Z,97643.38
2017-07-28T13:39:16.480Z,97649.64
2017-07-28T13:41:43.928Z,97649.35
2017-07-28T13:44:11.505Z,97646.42
2017-07-28T13:46:44.809Z,97647.05
2017-07-28T13:49:12.390Z,97644.73
2017-07-28T13:51:39.779Z,97648.68
2017-07-28T13:54:07.915Z,97644.23
2017-07-28T13:56:35.362Z,97643.16
2017-07-28T13:59:02.846Z,97641.20
2017-07-28T14:01:30.306Z,97649.86
2017-07-28T14:03:57.739Z,97650.42
2017-07-28T14:06:25.211Z,97652.20
2017-07-28T14:08:53.271Z,97639.80
2017-07-28T14:11:20.781Z,97644.16
2017-07-28T14:13:48.224Z,97647.53
2017-07-28T14:16:15.651Z,97652.97
2017-07-28T14:18:43.139Z,97650.65
2017-07-28T14:21:10.561Z,97646.28
2017-07-28T14:23:38.094Z,97648.43
2017-07-28T14:26:05.544Z,97650.73
2017-07-28T14:28:33.028Z,97655.87
2017-07-28T14:31:00.510Z,97648.03
2017-07-28T14:33:28.015Z,97655.07
2017-07-28T14:35:55.599Z,97650.16
2017-07-28T14:38:23.100Z,97645.03
2017-07-28T14:40:50.614Z,97651.09
2017-07-28T14:43:18.100Z,97648.27
2017-07-28T14:45:45.511Z,97647.44
2017-07-28T14:48:12.960Z,97639.83
2017-07-28T14:50:40.395Z,97639.17
2017-07-28T14:53:07.795Z,97638.02
2017-07-28T14:55:35.350Z,97641.91
2017-07-28T14:58:02.760Z,97638.31
2017-07-28T15:00:30.189Z,97636.42
2017-07-28T15:02:58.536Z,97644.02
2017-07-28T15:05:26.011Z,97642.21
2017-07-28T15:07:53.488Z,97650.64
2017-07-28T15:10:20.997Z,97642.31
2017-07-28T15:12:48.474Z,97648.23
2017-07-28T15:15:15.907Z,97642.87
2017-07-28T15:17:43.324Z,97633.47
2017-07-28T15:20:10.854Z,97633.86
2017-07-28T15:22:38.261Z,97630.24
2017-07-28T15:25:05.675Z,97620.50
2017-07-28T15:27:33.095Z,97620.26
2017-07-28T15:30:00.504Z,97625.58
2017-07-28T15:32:28.003Z,97615.36
2017-07-28T15:34:55.428Z,97628.13
2017-07-28T15:37:22.875Z,97624.03
2017-07-28T15:39:50.331Z,97631.30
2017-07-28T15:44:51.599Z,97633.33
2017-07-28T15:47:19.027Z,97635.28
2017-07-28T15:49:46.460Z,97638.58
2017-07-28T15:52:14.139Z,97637.34
2017-07-28T15:54:41.948Z,97628.14
2017-07-28T15:57:09.494Z,97631.45
2017-07-28T15:59:36.933Z,97629.97
2017-07-28T16:02:04.381Z,97625.07
2017-07-28T16:04:31.817Z,97640.80
2017-07-28T16:06:59.269Z,97637.72
2017-07-28T16:09:27.210Z,97630.31
2017-07-28T16:11:54.736Z,97642.04
2017-07-28T16:14:22.208Z,97631.13
2017-07-28T16:16:49.771Z,97630.77
2017-07-28T16:19:17.211Z,97625.25
2017-07-28T16:21:44.674Z,97627.08
2017-07-28T16:24:12.194Z,97627.55
2017-07-28T16:26:39.608Z,97629.50
2017-07-28T16:29:07.027Z,97627.50
2017-07-28T16:31:34.463Z,97626.05
2017-07-28T16:34:02.000Z,97628.60
2017-07-28T16:39:23.713Z,97624.14
2017-07-28T16:41:51.197Z,97630.08
2017-07-28T16:44:18.663Z,97620.05
2017-07-28T16:46:46.130Z,97631.02
2017-07-28T16:49:13.546Z,97631.83
2017-07-28T16:51:41.053Z,97635.37
2017-07-28T16:54:08.459Z,97639.50
2017-07-28T16:56:35.900Z,97636.63
2017-07-28T16:59:03.399Z,97645.81
2017-07-28T17:01:30.929Z,97641.15
2017-07-28T17:03:58.351Z,97644.88
2017-07-28T17:06:25.825Z,97644.63
2017-07-28T17:08:53.270Z,97652.23
2017-07-28T17:11:20.732Z,97643.63
2017-07-28T17:13:48.180Z,97653.66
2017-07-28T17:16:15.591Z,97646.09
2017-07-28T17:18:43.013Z,97649.98
2017-07-28T17:21:10.512Z,97661.36
2017-07-28T17:23:37.931Z,97659.68
2017-07-28T17:26:06.143Z,97655.86
2017-07-28T17:28:33.606Z,97648.19
2017-07-28T17:31:01.058Z,97646.25
2017-07-28T17:33:29.142Z,97646.19
2017-07-28T17:35:56.616Z,97646.77
2017-07-28T17:38:24.170Z,97646.44
2017-07-28T17:40:51.590Z,97649.61
2017-07-28T17:43:19.074Z,97646.53
2017-07-28T17:45:46.533Z,97644.77
2017-07-28T17:48:13.979Z,97643.75
2017-07-28T17:50:41.458Z,97649.98
2017-07-28T17:53:08.870Z,97644.33
2017-07-28T17:55:36.365Z,97652.22
2017-07-28T17:58:04.016Z,97645.75
2017-07-28T18:00:31.529Z,97656.59
2017-07-28T18:02:58.974Z,97659.73
2017-07-28T18:05:26.375Z,97660.55
2017-07-28T18:07:53.812Z,97665.42
2017-07-28T18:10:21.259Z,97667.42
2017-07-28T18:12:48.748Z,97668.95
2017-07-28T18:15:16.148Z,97668.89
2017-07-28T18:17:43.623Z,97675.30
2017-07-28T18:20:11.104Z,97671.39
2017-07-28T18:22:38.576Z,97665.52
2017-07-28T18:25:06.072Z,97671.75
2017-07-28T18:27:33.521Z,97675.27
2017-07-28T18:30:00.940Z,97676.73
2017-07-28T18:32:28.465Z,97677.55
2017-07-28T18:34:56.073Z,97676.09
2017-07-28T18:37:23.503Z,97678.67
2017-07-28T18:39:50.952Z,97678.86
2017-07-28T18:42:18.386Z,97686.26
2017-07-28T18:44:45.855Z,97684.86
2017-07-28T18:47:13.281Z,97688.42
2017-07-28T18:49:40.691Z,97688.14
2017-07-28T18:52:08.164Z,97688.57
2017-07-28T18:54:35.593Z,97691.13
2017-07-28T18:57:03.040Z,97691.89
2017-07-28T18:59:30.472Z,97704.03
2017-07-28T19:01:57.877Z,97703.03
2017-07-28T19:04:25.771Z,97702.08
2017-07-28T19:06:53.210Z,97701.35
2017-07-28T19:09:20.629Z,97709.03
2017-07-28T19:11:48.084Z,97713.84
2017-07-28T19:14:15.499Z,97715.85
2017-07-28T19:16:43.101Z,97710.56
2017-07-28T19:19:10.543Z,97720.52
2017-07-28T19:21:37.955Z,97730.72
2017-07-28T19:24:05.378Z,97734.78
2017-07-28T19:26:32.821Z,97740.95
2017-07-28T19:29:00.260Z,97745.50
2017-07-28T19:31:27.716Z,97749.47
2017-07-28T19:33:55.195Z,97754.22
2017-07-28T19:36:22.644Z,97758.29
2017-07-28T19:38:50.104Z,97765.39
2017-07-28T19:41:17.545Z,97771.73
2017-07-28T19:43:44.955Z,97767.16
2017-07-28T19:46:12.469Z,97759.81
2017-07-28T19:48:39.906Z,97766.69
2017-07-28T19:51:07.327Z,97776.02
2017-07-28T19:53:34.786Z,97773.64
2017-07-28T19:56:02.221Z,97773.00
2017-07-28T19:58:29.732Z,97773.36
2017-07-28T20:00:57.216Z,97779.84
2017-07-28T20:03:24.628Z,97784.63
2017-07-28T20:05:52.104Z,97782.06
2017-07-28T20:08:19.552Z,97781.66
2017-07-28T20:10:46.996Z,97784.83
2017-07-28T20:13:14.432Z,97781.86
2017-07-28T20:15:41.905Z,97790.28
2017-07-28T20:18:09.321Z,97781.11
2017-07-28T20:20:36.768Z,97792.22
2017-07-28T20:23:04.221Z,97787.49
2017-07-28T20:25:31.651Z,97788.83
2017-07-28T20:27:59.118Z,97779.05
2017-07-28T20:30:26.541Z,97771.15
2017-07-28T20:32:54.528Z,97765.11
2017-07-28T20:35:21.982Z,97761.80
2017-07-28T20:37:49.430Z,97761.53
2017-07-28T20:40:17.644Z,97760.33
2017-07-28T20:42:45.135Z,97761.80
2017-07-28T20:45:12.546Z,97760.47
2017-07-28T20:47:40.023Z,97762.84
2017-07-28T20:50:07.460Z,97771.55
2017-07-28T20:52:34.912Z,97776.58
2017-07-28T20:55:02.360Z,97790.80
2017-07-28T20:57:29.846Z,97795.58
2017-07-28T20:59:57.343Z,97793.95
2017-07-28T21:02:24.912Z,97799.28
2017-07-28T21:04:52.359Z,97800.94
2017-07-28T21:07:19.815Z,97806.77
2017-07-28T21:09:47.227Z,97811.70
2017-07-28T21:12:14.679Z,97805.67
2017-07-28T21:14:42.167Z,97802.92
2017-07-28T21:17:09.571Z,97793.42
2017-07-28T21:19:37.376Z,97792.63
2017-07-28T21:22:04.834Z,97789.72
2017-07-28T21:24:32.312Z,97798.30
2017-07-28T21:26:59.851Z,97799.00
2017-07-28T21:29:27.454Z,97795.73
2017-07-28T21:31:54.923Z,97792.13
2017-07-28T21:34:22.432Z,97795.64
2017-07-28T21:36:49.843Z,97792.05
2017-07-28T21:39:17.271Z,97788.38
2017-07-28T21:41:44.833Z,97792.89
2017-07-28T21:44:12.247Z,97799.20
2017-07-28T21:46:39.707Z,97794.24
2017-07-28T21:49:07.381Z,97795.63
2017-07-28T21:51:34.830Z,97787.86
2017-07-28T21:54:02.262Z,97783.19
2017-07-28T21:56:29.668Z,97772.78
2017-07-28T21:58:57.109Z,97778.95
2017-07-28T22:01:24.528Z,97777.41
2017-07-28T22:03:51.999Z,97779.56
2017-07-28T22:06:19.426Z,97783.14
2017-07-28T22:08:46.846Z,97781.92
2017-07-28T22:11:14.291Z,97784.55
2017-07-28T22:13:41.705Z,97787.72
2017-07-28T22:16:09.160Z,97785.20
2017-07-28T22:18:36.561Z,97787.19
2017-07-28T22:21:04.031Z,97785.08
2017-07-28T22:23:31.560Z,97782.66
2017-07-28T22:25:59.094Z,97783.31
2017-07-28T22:28:26.507Z,97782.53
2017-07-28T22:30:54.043Z,97782.19
2017-07-28T22:33:21.472Z,97783.95
2017-07-28T22:35:48.872Z,97775.69
2017-07-28T22:38:16.440Z,97779.78
2017-07-28T22:40:43.860Z,97780.98
2017-07-28T22:43:11.432Z,97780.70
2017-07-28T22:45:38.872Z,97781.95
2017-07-28T22:48:06.309Z,97784.65
2017-07-28T22:50:33.766Z,97769.88
2017-07-28T22:53:01.173Z,97765.51
2017-07-28T22:55:28.622Z,97772.56
2017-07-28T22:57:56.084Z,97766.82
2017-07-28T23:00:23.579Z,97768.25
2017-07-28T23:02:51.006Z,97772.64
2017-07-28T23:05:18.432Z,97775.81
2017-07-28T23:07:45.880Z,97776.54
2017-07-28T23:10:13.299Z,97778.47
2017-07-28T23:12:40.742Z,97776.61
2017-07-28T23:15:08.155Z,97777.73
2017-07-28T23:17:35.647Z,97775.86
2017-07-28T23:20:03.101Z,97775.19
2017-07-28T23:22:30.514Z,97781.80
2017-07-28T23:24:57.979Z,97779.23
2017-07-28T23:27:25.409Z,97775.16
2017-07-28T23:29:52.847Z,97773.17
2017-07-28T23:32:20.254Z,97776.08
2017-07-28T23:34:47.701Z,97774.75
2017-07-28T23:37:15.979Z,97775.89
2017-07-28T23:39:43.386Z,97779.92
2017-07-28T23:42:10.833Z,97775.44
2017-07-28T23:44:38.285Z,97777.41
2017-07-28T23:47:05.683Z,97769.88
2017-07-28T23:49:33.167Z,97777.21
2017-07-28T23:52:00.582Z,97771.41
2017-07-28T23:54:28.020Z,97769.26
2017-07-28T23:56:55.712Z,97768.86
2017-07-28T23:59:23.146Z,97764.56
